Time,TemperatureF,DewpointF,PressureIn,WindDirection,WindDirectionDegrees,WindSpeedMPH,WindSpeedGustMPH,Humidity,HourlyPrecipIn,Conditions,Clouds,dailyrainin,SoftwareType,DateUTC
2013-04-03 00:00:00,-28.7,-35.7,28.77,NNE,25,7.0,7.0,68,0.00,CLR,,0.00,WeatherDisplay:10.37,2013-04-02 11:00:00,
2013-04-03 00:15:00,-27.7,-34.5,28.77,NNE,13,7.0,7.0,69,0.00,CLR,,0.00,WeatherDisplay:10.37,2013-04-02 11:15:00,
2013-04-03 00:30:00,-27.9,-34.6,28.77,NNE,29,5.0,7.0,69,0.00,CLR,,0.00,WeatherDisplay:10.37,2013-04-02 11:30:00,
2013-04-03 00:45:00,-29.3,-36.3,28.77,NNE,23,7.0,7.0,68,0.00,CLR,,0.00,WeatherDisplay:10.37,2013-04-02 11:45:00,
2013-04-03 01:00:00,-28.6,-35.5,28.77,NNE,24,7.0,7.0,68,0.00,CLR,,0.00,WeatherDisplay:10.37,2013-04-02 12:00:00,
2013-04-03 01:15:00,-28.8,-35.7,28.76,NNE,30,5.0,7.0,68,0.00,CLR,,0.00,WeatherDisplay:10.37,2013-04-02 12:15:00,
2013-04-03 01:30:00,-27.7,-34.4,28.76,NNE,25,2.0,5.0,69,0.00,CLR,,0.00,WeatherDisplay:10.37,2013-04-02 12:30:00,
2013-04-03 01:45:00,-29.0,-36.2,28.75,North,0,0.0,2.0,67,0.00,CLR,,0.00,WeatherDisplay:10.37,2013-04-02 12:45:00,
2013-04-03 02:00:00,-28.8,-35.8,28.75,North,0,0.0,0.0,68,0.00,CLR,,0.00,WeatherDisplay:10.37,2013-04-02 13:00:00,
2013-04-03 02:15:00,-25.3,-31.6,28.74,NE,36,1.0,1.0,71,0.00,CLR,,0.00,WeatherDisplay:10.37,2013-04-02 13:15:00,
2013-04-03 02:30:00,-27.0,-34.1,28.74,North,0,0.0,1.0,68,0.00,CLR,,0.00,WeatherDisplay:10.37,2013-04-02 13:30:00,
2013-04-03 02:45:00,-29.3,-36.8,28.74,North,0,0.0,0.0,66,0.00,CLR,,0.00,WeatherDisplay:10.37,2013-04-02 13:45:00,
2013-04-03 03:00:00,-30.5,-37.6,28.74,North,0,0.0,0.0,67,0.00,CLR,,0.00,WeatherDisplay:10.37,2013-04-02 14:00:00,
2013-04-03 03:15:00,-24.5,-30.9,28.74,North,0,0.0,0.0,71,0.00,CLR,,0.00,WeatherDisplay:10.37,2013-04-02 14:15:00,
2013-04-03 03:30:00,-24.2,-30.5,28.73,North,0,0.0,0.0,71,0.00,CLR,,0.00,WeatherDisplay:10.37,2013-04-02 14:30:00,
2013-04-03 03:45:00,-25.1,-31.7,28.73,North,0,0.0,0.0,70,0.00,CLR,,0.00,WeatherDisplay:10.37,2013-04-02 14:45:00,
2013-04-03 04:00:00,-28.5,-36.0,28.73,North,0,0.0,0.0,66,0.00,CLR,,0.00,WeatherDisplay:10.37,2013-04-02 15:00:00,
2013-04-03 04:15:00,-25.4,-31.7,28.73,North,0,0.0,0.0,71,0.00,CLR,,0.00,WeatherDisplay:10.37,2013-04-02 15:15:00,
2013-04-03 04:30:00,-23.4,-29.5,28.73,North,0,0.0,0.0,72,0.00,CLR,,0.00,WeatherDisplay:10.37,2013-04-02 15:30:00,
2013-04-03 04:47:00,-26.8,-33.6,28.73,NE,35,1.0,1.0,69,0.00,CLR,,0.00,WeatherDisplay:10.37,2013-04-02 15:47:00,
2013-04-03 05:00:00,-38.8,-48.1,28.73,NNE,32,9.0,9.0,58,0.00,CLR,,0.00,WeatherDisplay:10.37,2013-04-02 16:00:00,
2013-04-03 05:15:00,-38.3,-46.2,28.72,NNE,25,13.0,13.0,63,0.00,CLR,,0.00,WeatherDisplay:10.37,2013-04-02 16:15:00,
2013-04-03 05:30:00,-37.9,-45.8,28.71,NNE,25,13.0,13.0,63,0.00,CLR,,0.00,WeatherDisplay:10.37,2013-04-02 16:30:00,
2013-04-03 05:45:00,-35.7,-43.4,28.71,NNE,26,13.0,13.0,64,0.00,CLR,,0.00,WeatherDisplay:10.37,2013-04-02 16:45:00,
2013-04-03 06:00:00,-32.2,-39.3,28.70,NNE,23,12.0,13.0,67,0.00,CLR,,0.00,WeatherDisplay:10.37,2013-04-02 17:00:00,
2013-04-03 06:15:00,-30.0,-37.2,28.70,NNE,29,9.0,12.0,67,0.00,CLR,,0.00,WeatherDisplay:10.37,2013-04-02 17:15:00,
2013-04-03 06:30:00,-28.9,-35.8,28.69,NNE,23,7.0,9.0,68,0.00,CLR,,0.00,WeatherDisplay:10.37,2013-04-02 17:30:00,
2013-04-03 06:45:00,-28.3,-35.0,28.69,NNE,28,10.0,10.0,69,0.00,CLR,,0.00,WeatherDisplay:10.37,2013-04-02 17:45:00,
2013-04-03 07:00:00,-28.8,-35.8,28.69,NNE,22,10.0,10.0,68,0.00,CLR,,0.00,WeatherDisplay:10.37,2013-04-02 18:00:00,
2013-04-03 07:15:00,-34.1,-42.2,28.69,NNE,22,9.0,10.0,63,0.00,CLR,,0.00,WeatherDisplay:10.37,2013-04-02 18:15:00,
2013-04-03 07:30:00,-41.6,-50.5,28.69,NNE,22,13.0,13.0,59,0.00,CLR,,0.00,WeatherDisplay:10.37,2013-04-02 18:30:00,
2013-04-03 07:45:00,-35.9,-43.3,28.68,NNE,20,10.0,13.0,65,0.00,CLR,,0.00,WeatherDisplay:10.37,2013-04-02 18:45:00,
2013-04-03 08:00:00,-36.5,-44.5,28.68,NNE,25,9.0,10.0,63,0.00,CLR,,0.00,WeatherDisplay:10.37,2013-04-02 19:00:00,
2013-04-03 08:15:00,-34.7,-42.2,28.68,NNE,16,8.0,9.0,65,0.00,CLR,,0.00,WeatherDisplay:10.37,2013-04-02 19:15:00,
2013-04-03 08:30:00,-34.5,-42.3,28.67,NNE,20,7.0,8.0,64,0.00,CLR,,0.00,WeatherDisplay:10.37,2013-04-02 19:30:00,
2013-04-03 08:45:00,-31.7,-39.1,28.67,NNE,22,6.0,7.0,66,0.00,CLR,,0.00,WeatherDisplay:10.37,2013-04-02 19:45:00,
2013-04-03 09:00:00,-33.8,-41.7,28.66,NNE,19,7.0,7.0,64,0.00,CLR,,0.00,WeatherDisplay:10.37,2013-04-02 20:00:00,
2013-04-03 09:15:00,-34.8,-42.9,28.66,NNE,24,7.0,7.0,63,0.00,CLR,,0.00,WeatherDisplay:10.37,2013-04-02 20:15:00,
2013-04-03 09:30:00,-34.8,-42.6,28.66,North,10,2.0,7.0,64,0.00,CLR,,0.00,WeatherDisplay:10.37,2013-04-02 20:30:00,
2013-04-03 09:45:00,-29.0,-36.0,28.65,NNE,15,1.0,2.0,68,0.00,CLR,,0.00,WeatherDisplay:10.37,2013-04-02 20:45:00,
2013-04-03 10:00:00,-26.7,-33.2,28.65,North,0,0.0,1.0,70,0.00,CLR,,0.00,WeatherDisplay:10.37,2013-04-02 21:00:00,
2013-04-03 10:15:00,-29.0,-36.0,28.65,North,0,0.0,0.0,68,0.00,CLR,,0.00,WeatherDisplay:10.37,2013-04-02 21:15:00,
2013-04-03 10:30:00,-33.2,-40.8,28.65,North,0,0.0,0.0,65,0.00,CLR,,0.00,WeatherDisplay:10.37,2013-04-02 21:30:00,
2013-04-03 10:45:00,-23.8,-29.9,28.64,North,0,0.0,0.0,72,0.00,CLR,,0.00,WeatherDisplay:10.37,2013-04-02 21:45:00,
2013-04-03 11:00:00,-24.2,-30.8,28.64,North,0,0.0,0.0,70,0.00,CLR,,0.00,WeatherDisplay:10.37,2013-04-02 22:00:00,
2013-04-03 11:15:00,-22.3,-28.4,28.63,North,0,0.0,0.0,72,0.00,CLR,,0.00,WeatherDisplay:10.37,2013-04-02 22:15:00,
2013-04-03 11:30:00,-22.8,-29.0,28.63,North,0,0.0,0.0,72,0.00,CLR,,0.00,WeatherDisplay:10.37,2013-04-02 22:30:00,
2013-04-03 11:45:00,-22.0,-28.2,28.63,North,0,0.0,0.0,72,0.00,CLR,,0.00,WeatherDisplay:10.37,2013-04-02 22:45:00,
2013-04-03 12:00:00,-21.6,-27.5,28.63,North,0,0.0,0.0,73,0.00,CLR,,0.00,WeatherDisplay:10.37,2013-04-02 23:00:00,
2013-04-03 12:15:00,-20.0,-26.0,28.63,North,0,0.0,0.0,73,0.00,CLR,,0.00,WeatherDisplay:10.37,2013-04-02 23:15:00,
2013-04-03 12:30:00,-19.8,-25.7,28.63,North,0,0.0,0.0,73,0.00,CLR,,0.00,WeatherDisplay:10.37,2013-04-02 23:30:00,
2013-04-03 12:45:00,-20.1,-25.8,28.62,North,0,0.0,0.0,74,0.00,CLR,,0.00,WeatherDisplay:10.37,2013-04-02 23:45:00,
2013-04-03 13:00:00,-19.1,-24.8,28.62,North,0,0.0,0.0,74,0.00,CLR,,0.00,WeatherDisplay:10.37,2013-04-03 00:00:00,
2013-04-03 13:15:00,-18.7,-24.5,28.61,North,0,0.0,0.0,74,0.00,CLR,,0.00,WeatherDisplay:10.37,2013-04-03 00:15:00,
2013-04-03 13:30:00,-18.7,-24.4,28.61,North,0,0.0,0.0,74,0.00,CLR,,0.00,WeatherDisplay:10.37,2013-04-03 00:30:00,
2013-04-03 13:45:00,-22.5,-28.9,28.60,North,0,0.0,0.0,71,0.00,CLR,,0.00,WeatherDisplay:10.37,2013-04-03 00:45:00,
2013-04-03 14:00:00,-21.1,-27.0,28.60,North,0,0.0,0.0,73,0.00,CLR,,0.00,WeatherDisplay:10.37,2013-04-03 01:00:00,
2013-04-03 14:15:00,-18.0,-23.5,28.60,North,0,0.0,0.0,75,0.00,CLR,,0.00,WeatherDisplay:10.37,2013-04-03 01:15:00,
2013-04-03 14:30:00,-17.8,-23.3,28.59,North,0,0.0,0.0,75,0.00,CLR,,0.00,WeatherDisplay:10.37,2013-04-03 01:30:00,
2013-04-03 14:45:00,-18.1,-23.9,28.59,North,0,0.0,0.0,74,0.00,CLR,,0.00,WeatherDisplay:10.37,2013-04-03 01:45:00,
2013-04-03 15:00:00,-20.9,-27.1,28.59,North,0,0.0,0.0,72,0.00,CLR,,0.00,WeatherDisplay:10.37,2013-04-03 02:00:00,
2013-04-03 15:15:00,-21.1,-27.1,28.58,North,0,0.0,0.0,73,0.00,CLR,,0.00,WeatherDisplay:10.37,2013-04-03 02:15:00,
2013-04-03 15:30:00,-20.7,-26.6,28.58,North,0,0.0,0.0,73,0.00,CLR,,0.00,WeatherDisplay:10.37,2013-04-03 02:30:00,
2013-04-03 15:45:00,-19.5,-25.3,28.58,North,0,0.0,0.0,74,0.00,CLR,,0.00,WeatherDisplay:10.37,2013-04-03 02:45:00,
2013-04-03 16:00:00,-19.1,-24.8,28.58,North,0,0.0,0.0,74,0.00,CLR,,0.00,WeatherDisplay:10.37,2013-04-03 03:00:00,
2013-04-03 16:15:00,-19.6,-25.3,28.57,North,0,0.0,0.0,74,0.00,CLR,,0.00,WeatherDisplay:10.37,2013-04-03 03:15:00,
2013-04-03 16:30:00,-19.3,-25.1,28.56,North,0,0.0,0.0,74,0.00,CLR,,0.00,WeatherDisplay:10.37,2013-04-03 03:30:00,
2013-04-03 16:45:00,-19.1,-24.8,28.56,North,0,0.0,0.0,74,0.00,CLR,,0.00,WeatherDisplay:10.37,2013-04-03 03:45:00,
2013-04-03 17:00:00,-18.7,-24.4,28.56,North,0,0.0,0.0,74,0.00,CLR,,0.00,WeatherDisplay:10.37,2013-04-03 04:00:00,
2013-04-03 17:15:00,-19.2,-25.0,28.56,North,0,0.0,0.0,74,0.00,CLR,,0.00,WeatherDisplay:10.37,2013-04-03 04:15:00,
2013-04-03 17:30:00,-19.6,-25.3,28.56,North,0,0.0,0.0,74,0.00,CLR,,0.00,WeatherDisplay:10.37,2013-04-03 04:30:00,
2013-04-03 17:45:00,-18.9,-24.6,28.55,North,0,0.0,0.0,74,0.00,CLR,,0.00,WeatherDisplay:10.37,2013-04-03 04:45:00,
2013-04-03 18:00:00,-19.0,-24.7,28.55,North,0,0.0,0.0,74,0.00,CLR,,0.00,WeatherDisplay:10.37,2013-04-03 05:00:00,
2013-04-03 18:15:00,-20.0,-25.8,28.55,North,0,0.0,0.0,74,0.00,CLR,,0.00,WeatherDisplay:10.37,2013-04-03 05:15:00,
2013-04-03 18:30:00,-19.0,-24.7,28.54,North,0,0.0,0.0,74,0.00,CLR,,0.00,WeatherDisplay:10.37,2013-04-03 05:30:00,
2013-04-03 18:45:00,-19.0,-24.7,28.54,North,0,0.0,0.0,74,0.00,CLR,,0.00,WeatherDisplay:10.37,2013-04-03 05:45:00,
2013-04-03 19:00:00,-19.3,-25.0,28.54,North,0,0.0,0.0,74,0.00,CLR,,0.00,WeatherDisplay:10.37,2013-04-03 06:00:00,
2013-04-03 19:15:00,-19.0,-24.7,28.53,North,0,0.0,0.0,74,0.00,CLR,,0.00,WeatherDisplay:10.37,2013-04-03 06:15:00,
2013-04-03 19:30:00,-18.6,-24.3,28.53,North,0,0.0,0.0,74,0.00,CLR,,0.00,WeatherDisplay:10.37,2013-04-03 06:30:00,
2013-04-03 19:45:00,-19.0,-24.7,28.53,North,0,0.0,0.0,74,0.00,CLR,,0.00,WeatherDisplay:10.37,2013-04-03 06:45:00,
2013-04-03 20:00:00,-19.0,-24.7,28.52,North,0,0.0,0.0,74,0.00,CLR,,0.00,WeatherDisplay:10.37,2013-04-03 07:00:00,
2013-04-03 20:15:00,-20.1,-26.1,28.52,North,0,0.0,0.0,73,0.00,CLR,,0.00,WeatherDisplay:10.37,2013-04-03 07:15:00,
2013-04-03 20:30:00,-19.6,-25.4,28.52,North,0,0.0,0.0,74,0.00,CLR,,0.00,WeatherDisplay:10.37,2013-04-03 07:30:00,
2013-04-03 20:45:00,-19.0,-24.7,28.52,North,0,0.0,0.0,74,0.00,CLR,,0.00,WeatherDisplay:10.37,2013-04-03 07:45:00,
2013-04-03 21:00:00,-19.4,-25.1,28.52,North,0,0.0,0.0,74,0.00,CLR,,0.00,WeatherDisplay:10.37,2013-04-03 08:00:00,
2013-04-03 21:15:00,-19.6,-25.4,28.52,North,0,0.0,0.0,74,0.00,CLR,,0.00,WeatherDisplay:10.37,2013-04-03 08:15:00,
2013-04-03 21:30:00,-20.1,-26.1,28.52,North,0,0.0,0.0,73,0.00,CLR,,0.00,WeatherDisplay:10.37,2013-04-03 08:30:00,
2013-04-03 21:45:00,-20.4,-26.4,28.52,North,0,0.0,0.0,73,0.00,CLR,,0.00,WeatherDisplay:10.37,2013-04-03 08:45:00,
2013-04-03 22:00:00,-20.3,-26.2,28.52,North,0,0.0,0.0,73,0.00,CLR,,0.00,WeatherDisplay:10.37,2013-04-03 09:00:00,
2013-04-03 22:15:00,-19.7,-25.4,28.52,North,0,0.0,0.0,74,0.00,CLR,,0.00,WeatherDisplay:10.37,2013-04-03 09:15:00,
2013-04-03 22:30:00,-19.7,-25.4,28.52,North,0,0.0,0.0,74,0.00,CLR,,0.00,WeatherDisplay:10.37,2013-04-03 09:30:00,
2013-04-03 22:45:00,-20.1,-26.0,28.52,North,0,0.0,0.0,73,0.00,CLR,,0.00,WeatherDisplay:10.37,2013-04-03 09:45:00,
2013-04-03 23:00:00,-20.2,-25.9,28.52,North,0,0.0,0.0,74,0.00,CLR,,0.00,WeatherDisplay:10.37,2013-04-03 10:00:00,
2013-04-03 23:15:00,-20.0,-25.7,28.51,North,0,0.0,0.0,74,0.00,CLR,,0.00,WeatherDisplay:10.37,2013-04-03 10:15:00,
2013-04-03 23:30:00,-20.4,-26.3,28.51,North,0,0.0,0.0,73,0.00,CLR,,0.00,WeatherDisplay:10.37,2013-04-03 10:30:00,
2013-04-03 23:45:00,-22.0,-28.5,28.52,North,0,0.0,0.0,71,0.00,CLR,,0.00,WeatherDisplay:10.37,2013-04-03 10:45:00,